sensor_id;sensor_type;location;lat;lon;timestamp;P1;durP1;ratioP1;P2;durP2;ratioP2
37303;SDS011;23188;51.188;16.374;2023-02-28T00:02:38;27.30;;;18.60;;
37303;SDS011;23188;51.188;16.374;2023-02-28T00:06:42;27.10;;;18.30;;
37303;SDS011;23188;51.188;16.374;2023-02-28T00:10:45;25.50;;;16.50;;
37303;SDS011;23188;51.188;16.374;2023-02-28T00:14:48;22.90;;;14.60;;
37303;SDS011;23188;51.188;16.374;2023-02-28T00:18:52;26.50;;;16.70;;
37303;SDS011;23188;51.188;16.374;2023-02-28T00:22:55;30.30;;;16.80;;
37303;SDS011;23188;51.188;16.374;2023-02-28T00:26:58;34.30;;;15.50;;
37303;SDS011;23188;51.188;16.374;2023-02-28T00:31:01;27.90;;;17.30;;
37303;SDS011;23188;51.188;16.374;2023-02-28T00:35:04;34.00;;;18.30;;
37303;SDS011;23188;51.188;16.374;2023-02-28T00:39:08;22.30;;;14.50;;
37303;SDS011;23188;51.188;16.374;2023-02-28T00:43:11;26.70;;;17.40;;
37303;SDS011;23188;51.188;16.374;2023-02-28T00:47:13;18.50;;;15.40;;
37303;SDS011;23188;51.188;16.374;2023-02-28T00:51:17;20.20;;;15.40;;
37303;SDS011;23188;51.188;16.374;2023-02-28T00:55:20;21.20;;;14.10;;
37303;SDS011;23188;51.188;16.374;2023-02-28T00:59:23;24.10;;;17.50;;
37303;SDS011;23188;51.188;16.374;2023-02-28T01:03:26;29.60;;;17.20;;
37303;SDS011;23188;51.188;16.374;2023-02-28T01:07:29;23.80;;;14.00;;
37303;SDS011;23188;51.188;16.374;2023-02-28T01:11:32;32.90;;;17.90;;
37303;SDS011;23188;51.188;16.374;2023-02-28T01:15:35;23.40;;;17.30;;
37303;SDS011;23188;51.188;16.374;2023-02-28T01:19:38;30.60;;;17.60;;
37303;SDS011;23188;51.188;16.374;2023-02-28T01:23:41;33.60;;;18.40;;
37303;SDS011;23188;51.188;16.374;2023-02-28T01:27:45;28.50;;;17.00;;
37303;SDS011;23188;51.188;16.374;2023-02-28T01:31:48;25.50;;;16.10;;
37303;SDS011;23188;51.188;16.374;2023-02-28T01:35:57;30.50;;;18.00;;
37303;SDS011;23188;51.188;16.374;2023-02-28T01:40:04;28.60;;;17.50;;
37303;SDS011;23188;51.188;16.374;2023-02-28T01:44:55;36.70;;;19.10;;
37303;SDS011;23188;51.188;16.374;2023-02-28T01:48:54;33.10;;;17.60;;
37303;SDS011;23188;51.188;16.374;2023-02-28T01:52:59;26.90;;;16.60;;
37303;SDS011;23188;51.188;16.374;2023-02-28T01:57:08;29.90;;;17.90;;
37303;SDS011;23188;51.188;16.374;2023-02-28T02:01:15;30.30;;;19.00;;
37303;SDS011;23188;51.188;16.374;2023-02-28T02:05:27;29.40;;;18.90;;
37303;SDS011;23188;51.188;16.374;2023-02-28T02:09:33;34.20;;;20.90;;
37303;SDS011;23188;51.188;16.374;2023-02-28T02:17:48;34.20;;;18.30;;
37303;SDS011;23188;51.188;16.374;2023-02-28T02:26:33;31.80;;;20.70;;
37303;SDS011;23188;51.188;16.374;2023-02-28T02:35:11;45.40;;;23.30;;
37303;SDS011;23188;51.188;16.374;2023-02-28T02:39:27;34.60;;;21.70;;
37303;SDS011;23188;51.188;16.374;2023-02-28T02:43:41;41.60;;;21.10;;
37303;SDS011;23188;51.188;16.374;2023-02-28T02:47:50;33.30;;;21.10;;
37303;SDS011;23188;51.188;16.374;2023-02-28T02:51:54;52.20;;;28.90;;
37303;SDS011;23188;51.188;16.374;2023-02-28T02:55:59;47.00;;;25.10;;
37303;SDS011;23188;51.188;16.374;2023-02-28T03:00:04;43.00;;;25.00;;
37303;SDS011;23188;51.188;16.374;2023-02-28T03:04:12;41.40;;;23.20;;
37303;SDS011;23188;51.188;16.374;2023-02-28T03:08:20;42.50;;;26.20;;
37303;SDS011;23188;51.188;16.374;2023-02-28T03:12:24;37.00;;;23.80;;
37303;SDS011;23188;51.188;16.374;2023-02-28T03:20:54;38.90;;;23.40;;
37303;SDS011;23188;51.188;16.374;2023-02-28T03:25:10;43.90;;;26.10;;
37303;SDS011;23188;51.188;16.374;2023-02-28T03:29:34;37.90;;;24.00;;
37303;SDS011;23188;51.188;16.374;2023-02-28T03:33:46;35.50;;;21.50;;
37303;SDS011;23188;51.188;16.374;2023-02-28T03:38:06;41.00;;;22.80;;
37303;SDS011;23188;51.188;16.374;2023-02-28T03:42:23;34.50;;;22.50;;
37303;SDS011;23188;51.188;16.374;2023-02-28T03:46:31;33.20;;;22.10;;
37303;SDS011;23188;51.188;16.374;2023-02-28T03:50:42;27.00;;;18.80;;
37303;SDS011;23188;51.188;16.374;2023-02-28T03:54:50;40.60;;;24.20;;
37303;SDS011;23188;51.188;16.374;2023-02-28T03:59:01;46.40;;;25.70;;
37303;SDS011;23188;51.188;16.374;2023-02-28T04:03:09;52.40;;;26.80;;
37303;SDS011;23188;51.188;16.374;2023-02-28T04:07:12;35.60;;;24.20;;
37303;SDS011;23188;51.188;16.374;2023-02-28T04:15:26;37.10;;;23.80;;
37303;SDS011;23188;51.188;16.374;2023-02-28T04:19:29;41.10;;;23.10;;
37303;SDS011;23188;51.188;16.374;2023-02-28T04:23:32;37.40;;;25.10;;
37303;SDS011;23188;51.188;16.374;2023-02-28T04:27:35;35.30;;;23.50;;
37303;SDS011;23188;51.188;16.374;2023-02-28T04:31:39;30.40;;;20.70;;
37303;SDS011;23188;51.188;16.374;2023-02-28T04:35:42;32.50;;;24.70;;
37303;SDS011;23188;51.188;16.374;2023-02-28T04:39:45;47.20;;;25.40;;
37303;SDS011;23188;51.188;16.374;2023-02-28T04:43:48;37.80;;;23.80;;
37303;SDS011;23188;51.188;16.374;2023-02-28T04:47:51;46.90;;;26.80;;
37303;SDS011;23188;51.188;16.374;2023-02-28T04:51:56;42.50;;;25.90;;
37303;SDS011;23188;51.188;16.374;2023-02-28T04:55:59;39.50;;;22.40;;
37303;SDS011;23188;51.188;16.374;2023-02-28T05:00:03;32.20;;;23.90;;
37303;SDS011;23188;51.188;16.374;2023-02-28T05:04:09;39.20;;;22.90;;
37303;SDS011;23188;51.188;16.374;2023-02-28T05:08:12;37.50;;;23.30;;
37303;SDS011;23188;51.188;16.374;2023-02-28T05:12:15;40.50;;;22.60;;
37303;SDS011;23188;51.188;16.374;2023-02-28T05:16:18;39.00;;;23.60;;
37303;SDS011;23188;51.188;16.374;2023-02-28T05:20:22;35.80;;;22.10;;
37303;SDS011;23188;51.188;16.374;2023-02-28T05:24:25;44.90;;;26.00;;
37303;SDS011;23188;51.188;16.374;2023-02-28T05:28:28;27.60;;;21.60;;
37303;SDS011;23188;51.188;16.374;2023-02-28T05:32:31;29.90;;;18.90;;
37303;SDS011;23188;51.188;16.374;2023-02-28T05:36:36;33.20;;;23.10;;
37303;SDS011;23188;51.188;16.374;2023-02-28T05:40:39;34.00;;;22.00;;
37303;SDS011;23188;51.188;16.374;2023-02-28T05:44:42;39.70;;;25.40;;
37303;SDS011;23188;51.188;16.374;2023-02-28T05:48:46;37.30;;;24.00;;
37303;SDS011;23188;51.188;16.374;2023-02-28T05:52:50;43.20;;;24.50;;
37303;SDS011;23188;51.188;16.374;2023-02-28T05:56:53;42.60;;;26.10;;
37303;SDS011;23188;51.188;16.374;2023-02-28T06:00:57;36.70;;;24.50;;
37303;SDS011;23188;51.188;16.374;2023-02-28T06:05:00;41.20;;;24.50;;
37303;SDS011;23188;51.188;16.374;2023-02-28T06:09:04;39.70;;;26.60;;
37303;SDS011;23188;51.188;16.374;2023-02-28T06:13:08;36.40;;;23.20;;
37303;SDS011;23188;51.188;16.374;2023-02-28T06:17:11;44.60;;;24.50;;
37303;SDS011;23188;51.188;16.374;2023-02-28T06:21:14;37.90;;;22.20;;
37303;SDS011;23188;51.188;16.374;2023-02-28T06:25:18;44.50;;;25.70;;
37303;SDS011;23188;51.188;16.374;2023-02-28T06:29:21;42.30;;;26.40;;
37303;SDS011;23188;51.188;16.374;2023-02-28T06:33:24;37.90;;;21.00;;
37303;SDS011;23188;51.188;16.374;2023-02-28T06:37:27;39.60;;;21.60;;
37303;SDS011;23188;51.188;16.374;2023-02-28T06:41:30;34.60;;;20.80;;
37303;SDS011;23188;51.188;16.374;2023-02-28T06:45:59;37.80;;;20.80;;
37303;SDS011;23188;51.188;16.374;2023-02-28T06:50:04;36.20;;;21.60;;
37303;SDS011;23188;51.188;16.374;2023-02-28T06:54:08;35.70;;;21.10;;
37303;SDS011;23188;51.188;16.374;2023-02-28T06:58:12;34.70;;;20.30;;
37303;SDS011;23188;51.188;16.374;2023-02-28T07:02:17;32.50;;;21.20;;
37303;SDS011;23188;51.188;16.374;2023-02-28T07:06:21;37.50;;;21.50;;
37303;SDS011;23188;51.188;16.374;2023-02-28T07:10:25;29.70;;;19.60;;
37303;SDS011;23188;51.188;16.374;2023-02-28T07:14:28;36.20;;;20.80;;
37303;SDS011;23188;51.188;16.374;2023-02-28T07:18:31;29.80;;;18.80;;
37303;SDS011;23188;51.188;16.374;2023-02-28T07:22:34;31.20;;;21.30;;
37303;SDS011;23188;51.188;16.374;2023-02-28T07:26:37;33.70;;;19.90;;
37303;SDS011;23188;51.188;16.374;2023-02-28T07:30:40;37.20;;;22.70;;
37303;SDS011;23188;51.188;16.374;2023-02-28T07:34:43;41.30;;;23.50;;
37303;SDS011;23188;51.188;16.374;2023-02-28T07:38:47;44.20;;;25.90;;
37303;SDS011;23188;51.188;16.374;2023-02-28T07:42:52;43.90;;;25.40;;
37303;SDS011;23188;51.188;16.374;2023-02-28T07:46:55;36.10;;;25.10;;
37303;SDS011;23188;51.188;16.374;2023-02-28T07:50:58;43.80;;;26.30;;
37303;SDS011;23188;51.188;16.374;2023-02-28T07:55:03;39.40;;;24.00;;
37303;SDS011;23188;51.188;16.374;2023-02-28T07:59:07;32.70;;;22.40;;
37303;SDS011;23188;51.188;16.374;2023-02-28T08:03:13;32.00;;;23.00;;
37303;SDS011;23188;51.188;16.374;2023-02-28T08:07:16;44.10;;;27.60;;
37303;SDS011;23188;51.188;16.374;2023-02-28T08:11:20;38.70;;;24.90;;
37303;SDS011;23188;51.188;16.374;2023-02-28T08:15:23;34.40;;;20.40;;
37303;SDS011;23188;51.188;16.374;2023-02-28T08:24:17;23.30;;;16.10;;
37303;SDS011;23188;51.188;16.374;2023-02-28T09:08:57;22.40;;;14.70;;
37303;SDS011;23188;51.188;16.374;2023-02-28T09:22:03;8.40;;;6.80;;
37303;SDS011;23188;51.188;16.374;2023-02-28T09:30:19;11.90;;;8.90;;
37303;SDS011;23188;51.188;16.374;2023-02-28T09:34:22;17.80;;;10.80;;
37303;SDS011;23188;51.188;16.374;2023-02-28T09:42:55;13.50;;;8.10;;
37303;SDS011;23188;51.188;16.374;2023-02-28T10:00:29;15.80;;;11.10;;
37303;SDS011;23188;51.188;16.374;2023-02-28T10:09:01;15.30;;;10.70;;
37303;SDS011;23188;51.188;16.374;2023-02-28T10:13:13;14.80;;;9.40;;
37303;SDS011;23188;51.188;16.374;2023-02-28T10:18:04;15.50;;;10.20;;
37303;SDS011;23188;51.188;16.374;2023-02-28T10:27:39;11.60;;;9.10;;
37303;SDS011;23188;51.188;16.374;2023-02-28T10:36:14;12.30;;;8.10;;
37303;SDS011;23188;51.188;16.374;2023-02-28T10:44:24;16.10;;;8.80;;
37303;SDS011;23188;51.188;16.374;2023-02-28T10:52:37;18.00;;;12.60;;
37303;SDS011;23188;51.188;16.374;2023-02-28T10:56:42;22.30;;;12.40;;
37303;SDS011;23188;51.188;16.374;2023-02-28T11:00:45;32.30;;;18.90;;
37303;SDS011;23188;51.188;16.374;2023-02-28T11:04:49;13.10;;;11.10;;
37303;SDS011;23188;51.188;16.374;2023-02-28T11:13:33;17.20;;;10.90;;
37303;SDS011;23188;51.188;16.374;2023-02-28T11:17:37;15.10;;;9.70;;
37303;SDS011;23188;51.188;16.374;2023-02-28T11:21:40;23.70;;;14.60;;
37303;SDS011;23188;51.188;16.374;2023-02-28T11:26:15;16.20;;;9.60;;
37303;SDS011;23188;51.188;16.374;2023-02-28T11:39:13;12.90;;;9.80;;
37303;SDS011;23188;51.188;16.374;2023-02-28T11:51:47;20.10;;;11.00;;
37303;SDS011;23188;51.188;16.374;2023-02-28T11:56:12;17.50;;;9.60;;
37303;SDS011;23188;51.188;16.374;2023-02-28T12:09:02;8.60;;;7.70;;
37303;SDS011;23188;51.188;16.374;2023-02-28T12:17:37;9.10;;;6.60;;
37303;SDS011;23188;51.188;16.374;2023-02-28T12:31:07;10.10;;;8.80;;
37303;SDS011;23188;51.188;16.374;2023-02-28T12:35:28;9.40;;;7.60;;
37303;SDS011;23188;51.188;16.374;2023-02-28T12:39:41;9.90;;;6.60;;
37303;SDS011;23188;51.188;16.374;2023-02-28T12:43:57;8.00;;;7.20;;
37303;SDS011;23188;51.188;16.374;2023-02-28T12:48:05;10.30;;;6.30;;
37303;SDS011;23188;51.188;16.374;2023-02-28T13:09:51;8.40;;;5.90;;
37303;SDS011;23188;51.188;16.374;2023-02-28T13:13:57;6.60;;;5.10;;
37303;SDS011;23188;51.188;16.374;2023-02-28T13:18:01;10.00;;;7.50;;
37303;SDS011;23188;51.188;16.374;2023-02-28T13:22:04;12.20;;;6.60;;
37303;SDS011;23188;51.188;16.374;2023-02-28T13:31:15;10.50;;;7.70;;
37303;SDS011;23188;51.188;16.374;2023-02-28T13:35:37;11.40;;;7.70;;
37303;SDS011;23188;51.188;16.374;2023-02-28T13:39:50;9.80;;;6.80;;
37303;SDS011;23188;51.188;16.374;2023-02-28T13:48:15;13.70;;;7.80;;
37303;SDS011;23188;51.188;16.374;2023-02-28T13:52:22;12.10;;;7.90;;
37303;SDS011;23188;51.188;16.374;2023-02-28T13:56:29;13.50;;;7.00;;
37303;SDS011;23188;51.188;16.374;2023-02-28T14:09:34;15.00;;;7.70;;
37303;SDS011;23188;51.188;16.374;2023-02-28T14:13:59;8.20;;;6.50;;
37303;SDS011;23188;51.188;16.374;2023-02-28T14:22:44;15.00;;;7.70;;
37303;SDS011;23188;51.188;16.374;2023-02-28T14:26:57;10.70;;;8.20;;
37303;SDS011;23188;51.188;16.374;2023-02-28T14:31:32;22.20;;;12.90;;
37303;SDS011;23188;51.188;16.374;2023-02-28T14:39:57;19.80;;;12.20;;
37303;SDS011;23188;51.188;16.374;2023-02-28T14:44:02;15.90;;;12.00;;
37303;SDS011;23188;51.188;16.374;2023-02-28T14:48:15;11.60;;;7.70;;
37303;SDS011;23188;51.188;16.374;2023-02-28T14:52:20;10.70;;;7.90;;
37303;SDS011;23188;51.188;16.374;2023-02-28T14:56:30;14.60;;;10.00;;
37303;SDS011;23188;51.188;16.374;2023-02-28T15:00:46;15.30;;;8.50;;
37303;SDS011;23188;51.188;16.374;2023-02-28T15:04:55;11.90;;;9.20;;
37303;SDS011;23188;51.188;16.374;2023-02-28T15:09:17;15.80;;;10.70;;
37303;SDS011;23188;51.188;16.374;2023-02-28T15:13:21;12.80;;;9.10;;
37303;SDS011;23188;51.188;16.374;2023-02-28T15:17:26;15.00;;;9.10;;
37303;SDS011;23188;51.188;16.374;2023-02-28T15:26:47;15.80;;;11.00;;
37303;SDS011;23188;51.188;16.374;2023-02-28T15:30:58;16.60;;;10.70;;
37303;SDS011;23188;51.188;16.374;2023-02-28T15:35:20;15.70;;;9.50;;
37303;SDS011;23188;51.188;16.374;2023-02-28T15:39:31;19.40;;;11.10;;
37303;SDS011;23188;51.188;16.374;2023-02-28T15:43:44;22.50;;;14.50;;
37303;SDS011;23188;51.188;16.374;2023-02-28T15:47:47;42.70;;;24.30;;
37303;SDS011;23188;51.188;16.374;2023-02-28T15:51:51;28.40;;;17.30;;
37303;SDS011;23188;51.188;16.374;2023-02-28T15:56:01;20.20;;;14.00;;
37303;SDS011;23188;51.188;16.374;2023-02-28T16:00:11;27.10;;;13.80;;
37303;SDS011;23188;51.188;16.374;2023-02-28T16:04:19;26.10;;;13.80;;
37303;SDS011;23188;51.188;16.374;2023-02-28T16:08:23;17.20;;;13.60;;
37303;SDS011;23188;51.188;16.374;2023-02-28T16:12:27;23.10;;;15.50;;
37303;SDS011;23188;51.188;16.374;2023-02-28T16:16:32;20.60;;;14.20;;
37303;SDS011;23188;51.188;16.374;2023-02-28T16:20:36;29.60;;;16.50;;
37303;SDS011;23188;51.188;16.374;2023-02-28T16:24:41;22.60;;;16.20;;
37303;SDS011;23188;51.188;16.374;2023-02-28T16:28:44;20.10;;;15.50;;
37303;SDS011;23188;51.188;16.374;2023-02-28T16:32:48;24.90;;;15.00;;
37303;SDS011;23188;51.188;16.374;2023-02-28T16:36:52;24.90;;;16.70;;
37303;SDS011;23188;51.188;16.374;2023-02-28T16:40:55;22.30;;;15.60;;
37303;SDS011;23188;51.188;16.374;2023-02-28T16:45:02;21.00;;;14.60;;
37303;SDS011;23188;51.188;16.374;2023-02-28T16:49:10;21.00;;;14.80;;
37303;SDS011;23188;51.188;16.374;2023-02-28T16:53:15;31.30;;;19.60;;
37303;SDS011;23188;51.188;16.374;2023-02-28T16:57:21;33.30;;;22.90;;
37303;SDS011;23188;51.188;16.374;2023-02-28T17:01:26;36.40;;;23.40;;
37303;SDS011;23188;51.188;16.374;2023-02-28T17:05:36;37.40;;;20.80;;
37303;SDS011;23188;51.188;16.374;2023-02-28T17:09:42;31.90;;;21.50;;
37303;SDS011;23188;51.188;16.374;2023-02-28T17:13:48;53.30;;;33.00;;
37303;SDS011;23188;51.188;16.374;2023-02-28T17:17:51;52.70;;;33.40;;
37303;SDS011;23188;51.188;16.374;2023-02-28T17:21:56;74.00;;;44.00;;
37303;SDS011;23188;51.188;16.374;2023-02-28T17:25:59;74.20;;;38.90;;
37303;SDS011;23188;51.188;16.374;2023-02-28T17:34:17;57.80;;;39.70;;
37303;SDS011;23188;51.188;16.374;2023-02-28T17:38:24;62.90;;;39.70;;
37303;SDS011;23188;51.188;16.374;2023-02-28T17:42:27;63.80;;;38.90;;
37303;SDS011;23188;51.188;16.374;2023-02-28T17:46:31;68.50;;;44.60;;
37303;SDS011;23188;51.188;16.374;2023-02-28T17:50:35;80.90;;;50.90;;
37303;SDS011;23188;51.188;16.374;2023-02-28T17:54:38;60.80;;;36.40;;
37303;SDS011;23188;51.188;16.374;2023-02-28T17:58:42;57.40;;;31.30;;
37303;SDS011;23188;51.188;16.374;2023-02-28T18:02:45;37.00;;;21.70;;
37303;SDS011;23188;51.188;16.374;2023-02-28T18:06:48;27.60;;;18.90;;
37303;SDS011;23188;51.188;16.374;2023-02-28T18:10:54;29.60;;;20.10;;
37303;SDS011;23188;51.188;16.374;2023-02-28T18:14:57;34.40;;;23.00;;
37303;SDS011;23188;51.188;16.374;2023-02-28T18:19:01;45.90;;;26.60;;
37303;SDS011;23188;51.188;16.374;2023-02-28T18:23:05;117.10;;;58.00;;
37303;SDS011;23188;51.188;16.374;2023-02-28T18:27:09;46.10;;;26.30;;
37303;SDS011;23188;51.188;16.374;2023-02-28T18:31:15;89.20;;;45.90;;
37303;SDS011;23188;51.188;16.374;2023-02-28T18:39:36;51.00;;;29.90;;
37303;SDS011;23188;51.188;16.374;2023-02-28T18:43:39;43.80;;;23.10;;
37303;SDS011;23188;51.188;16.374;2023-02-28T18:47:42;34.20;;;23.10;;
37303;SDS011;23188;51.188;16.374;2023-02-28T18:51:46;26.60;;;19.40;;
37303;SDS011;23188;51.188;16.374;2023-02-28T18:55:49;30.40;;;19.90;;
37303;SDS011;23188;51.188;16.374;2023-02-28T18:59:53;29.10;;;21.60;;
37303;SDS011;23188;51.188;16.374;2023-02-28T19:03:57;24.90;;;17.90;;
37303;SDS011;23188;51.188;16.374;2023-02-28T19:08:02;28.20;;;19.40;;
37303;SDS011;23188;51.188;16.374;2023-02-28T19:12:06;34.70;;;25.70;;
37303;SDS011;23188;51.188;16.374;2023-02-28T19:16:10;46.50;;;29.80;;
37303;SDS011;23188;51.188;16.374;2023-02-28T19:20:15;31.40;;;22.20;;
37303;SDS011;23188;51.188;16.374;2023-02-28T19:24:19;33.70;;;21.80;;
37303;SDS011;23188;51.188;16.374;2023-02-28T19:28:22;33.10;;;21.40;;
37303;SDS011;23188;51.188;16.374;2023-02-28T19:32:29;39.50;;;24.60;;
37303;SDS011;23188;51.188;16.374;2023-02-28T19:36:32;40.20;;;26.60;;
37303;SDS011;23188;51.188;16.374;2023-02-28T19:40:36;37.50;;;24.90;;
37303;SDS011;23188;51.188;16.374;2023-02-28T19:44:40;41.10;;;27.10;;
37303;SDS011;23188;51.188;16.374;2023-02-28T19:48:45;37.50;;;27.40;;
37303;SDS011;23188;51.188;16.374;2023-02-28T19:52:50;42.30;;;26.70;;
37303;SDS011;23188;51.188;16.374;2023-02-28T19:56:54;47.90;;;29.50;;
37303;SDS011;23188;51.188;16.374;2023-02-28T20:01:13;43.80;;;26.30;;
37303;SDS011;23188;51.188;16.374;2023-02-28T20:05:20;40.60;;;27.90;;
37303;SDS011;23188;51.188;16.374;2023-02-28T20:09:24;59.40;;;29.60;;
37303;SDS011;23188;51.188;16.374;2023-02-28T20:13:32;49.60;;;28.90;;
37303;SDS011;23188;51.188;16.374;2023-02-28T20:17:36;46.80;;;28.60;;
37303;SDS011;23188;51.188;16.374;2023-02-28T20:21:39;48.80;;;28.80;;
37303;SDS011;23188;51.188;16.374;2023-02-28T20:25:44;48.50;;;32.90;;
37303;SDS011;23188;51.188;16.374;2023-02-28T20:29:48;64.90;;;35.70;;
37303;SDS011;23188;51.188;16.374;2023-02-28T20:33:51;84.70;;;51.10;;
37303;SDS011;23188;51.188;16.374;2023-02-28T20:37:57;99.50;;;61.50;;
37303;SDS011;23188;51.188;16.374;2023-02-28T20:42:00;88.90;;;55.60;;
37303;SDS011;23188;51.188;16.374;2023-02-28T20:46:03;65.50;;;37.00;;
37303;SDS011;23188;51.188;16.374;2023-02-28T20:50:08;52.00;;;31.40;;
37303;SDS011;23188;51.188;16.374;2023-02-28T20:54:12;154.60;;;74.80;;
37303;SDS011;23188;51.188;16.374;2023-02-28T20:58:18;353.50;;;147.00;;
37303;SDS011;23188;51.188;16.374;2023-02-28T21:02:22;291.30;;;133.10;;
37303;SDS011;23188;51.188;16.374;2023-02-28T21:06:26;154.40;;;78.00;;
37303;SDS011;23188;51.188;16.374;2023-02-28T21:10:31;101.80;;;56.50;;
37303;SDS011;23188;51.188;16.374;2023-02-28T21:14:35;69.80;;;39.10;;
37303;SDS011;23188;51.188;16.374;2023-02-28T21:18:39;78.80;;;42.50;;
37303;SDS011;23188;51.188;16.374;2023-02-28T21:22:43;62.60;;;34.20;;
37303;SDS011;23188;51.188;16.374;2023-02-28T21:26:46;59.90;;;33.00;;
37303;SDS011;23188;51.188;16.374;2023-02-28T21:30:50;59.00;;;35.60;;
37303;SDS011;23188;51.188;16.374;2023-02-28T21:34:54;59.10;;;33.60;;
37303;SDS011;23188;51.188;16.374;2023-02-28T21:38:58;47.00;;;26.70;;
37303;SDS011;23188;51.188;16.374;2023-02-28T21:43:03;55.10;;;30.00;;
37303;SDS011;23188;51.188;16.374;2023-02-28T21:47:07;56.90;;;33.10;;
37303;SDS011;23188;51.188;16.374;2023-02-28T21:51:11;64.40;;;32.10;;
37303;SDS011;23188;51.188;16.374;2023-02-28T21:55:16;56.30;;;32.20;;
37303;SDS011;23188;51.188;16.374;2023-02-28T21:59:19;51.80;;;31.10;;
37303;SDS011;23188;51.188;16.374;2023-02-28T22:03:22;60.20;;;32.30;;
37303;SDS011;23188;51.188;16.374;2023-02-28T22:07:25;51.50;;;30.00;;
37303;SDS011;23188;51.188;16.374;2023-02-28T22:11:28;49.50;;;29.10;;
37303;SDS011;23188;51.188;16.374;2023-02-28T22:15:36;58.50;;;36.60;;
37303;SDS011;23188;51.188;16.374;2023-02-28T22:19:39;47.00;;;30.40;;
37303;SDS011;23188;51.188;16.374;2023-02-28T22:23:43;54.30;;;30.80;;
37303;SDS011;23188;51.188;16.374;2023-02-28T22:27:47;48.70;;;32.20;;
37303;SDS011;23188;51.188;16.374;2023-02-28T22:31:51;60.70;;;36.50;;
37303;SDS011;23188;51.188;16.374;2023-02-28T22:35:54;56.20;;;31.40;;
37303;SDS011;23188;51.188;16.374;2023-02-28T22:39:57;45.80;;;27.10;;
37303;SDS011;23188;51.188;16.374;2023-02-28T22:44:01;43.20;;;28.30;;
37303;SDS011;23188;51.188;16.374;2023-02-28T22:48:06;59.00;;;34.50;;
37303;SDS011;23188;51.188;16.374;2023-02-28T22:52:11;69.80;;;40.20;;
37303;SDS011;23188;51.188;16.374;2023-02-28T22:56:15;69.90;;;37.50;;
37303;SDS011;23188;51.188;16.374;2023-02-28T23:00:19;63.20;;;35.10;;
37303;SDS011;23188;51.188;16.374;2023-02-28T23:04:23;60.30;;;34.80;;
37303;SDS011;23188;51.188;16.374;2023-02-28T23:08:28;83.00;;;47.50;;
37303;SDS011;23188;51.188;16.374;2023-02-28T23:12:31;65.50;;;40.90;;
37303;SDS011;23188;51.188;16.374;2023-02-28T23:16:41;48.60;;;30.90;;
37303;SDS011;23188;51.188;16.374;2023-02-28T23:20:46;48.30;;;32.50;;
37303;SDS011;23188;51.188;16.374;2023-02-28T23:24:49;107.00;;;56.60;;
37303;SDS011;23188;51.188;16.374;2023-02-28T23:28:55;67.20;;;38.00;;
37303;SDS011;23188;51.188;16.374;2023-02-28T23:32:58;103.90;;;58.90;;
37303;SDS011;23188;51.188;16.374;2023-02-28T23:37:01;113.70;;;62.80;;
37303;SDS011;23188;51.188;16.374;2023-02-28T23:41:08;82.90;;;48.00;;
37303;SDS011;23188;51.188;16.374;2023-02-28T23:45:13;101.60;;;52.90;;
37303;SDS011;23188;51.188;16.374;2023-02-28T23:49:16;105.80;;;59.30;;
37303;SDS011;23188;51.188;16.374;2023-02-28T23:53:23;107.00;;;55.10;;
37303;SDS011;23188;51.188;16.374;2023-02-28T23:57:27;140.90;;;70.90;;
